Main page
METAR-TAF:

METAR-TAF

Airports :

Buochs Airport

Buochs, Switzerland

latitude: 46-58-28N, longitude: 8-23-49E, elevation: 449 m

Current weather observation

The report was made 44 minutes ago, at 17:20 UTC
Wind 5 kt from the East/Northeast
Temperature 19°C
Humidity 68%
Pressure 1012 hPa
Visibility 10 km or more
Broken clouds at a height of 12000 ft

METAR: LSZC 141720Z AUTO 07005KT 9999 BKN120 19/13 Q1012

Time: 20:04 (18:04 UTC)

Forecast

The report was made 3 hours and 39 minutes ago, at 14:25 UTC
Forecast valid from 14 at 15 UTC to 14 at 24 UTC
Wind 5 kt from the East/Northeast
Visibility 10 km or more
Few clouds at a height of 2500 ft
Scattered clouds at a height of 7000 ft
Broken clouds at a height of 8000 ft
Probability 40% :
Temporary
from 14 at 15 UTC to 14 at 18 UTC
rain showers,

TAF: LSZC 141425Z 1415/1424 07005KT 9999 FEW025 SCT070 BKN080 PROB40 TEMPO 1415/1418 SHRA

Weather observations and forecasts of more than 4000 airports (METAR and TAF reports).

The available stations are represented by yellow and red dots on the map.

Hover mouse over dot to see the name of the station.

Then click to see weather observations and forecasts.

To change the map : click on the green buttons with a black cross to zoom in, on the green button with a dash to zoom out, or on the green arrows for adjacent maps.


METAR-TAF: